Time;durP1;ratioP1;P1;durP2;ratioP2;P2;SDS_P1;SDS_P2;PMS_P1;PMS_P2;Temp;Humidity;BMP_temperature;BMP_pressure;BME280_temperature;BME280_humidity;BME280_pressure;Samples;Min_cycle;Max_cycle;Signal;HPM_P1;HPM_P2
2021/03/03 00:00:32;;;;;;;35.83;14.90;;;;;;;7.35;89.08;102420.25;4911166;29;20046;-71
2021/03/03 00:03:00;;;;;;;34.40;13.18;;;;;;;7.29;89.35;102418.63;4927085;29;20087;-71
2021/03/03 00:05:27;;;;;;;32.92;13.10;;;;;;;7.18;89.67;102420.66;4926291;29;20126;-71
2021/03/03 00:07:52;;;;;;;35.03;13.60;;;;;;;7.11;90.06;102419.03;4928156;29;20394;-71
2021/03/03 00:10:18;;;;;;;29.58;13.43;;;;;;;7.02;90.28;102421.94;4924430;29;20032;-70
2021/03/03 00:12:44;;;;;;;35.88;15.25;;;;;;;7.01;90.52;102414.84;4927500;29;20491;-71
2021/03/03 00:15:10;;;;;;;35.55;14.57;;;;;;;6.94;90.90;102418.56;4908635;29;20043;-71
2021/03/03 00:17:35;;;;;;;39.38;14.93;;;;;;;6.87;91.14;102414.25;4927593;29;20066;-71
2021/03/03 00:20:01;;;;;;;42.28;14.65;;;;;;;6.90;91.48;102416.88;4912016;29;20067;-71
2021/03/03 00:22:29;;;;;;;31.35;13.60;;;;;;;7.10;91.75;102414.63;4921503;29;20043;-71
2021/03/03 00:24:55;;;;;;;34.00;14.20;;;;;;;7.13;91.70;102421.69;4929514;29;20058;-71
2021/03/03 00:27:20;;;;;;;29.85;14.57;;;;;;;7.12;91.46;102415.47;4931383;29;20490;-71
2021/03/03 00:29:45;;;;;;;33.88;13.95;;;;;;;7.12;91.30;102420.81;4926816;29;20032;-71
2021/03/03 00:32:11;;;;;;;38.00;14.38;;;;;;;7.08;91.82;102424.47;4927696;29;20657;-71
2021/03/03 00:34:36;;;;;;;38.85;14.75;;;;;;;7.10;91.65;102417.28;4911289;29;20036;-71
2021/03/03 00:37:02;;;;;;;33.55;14.40;;;;;;;7.12;91.70;102419.94;4931244;29;20039;-70
2021/03/03 00:39:27;;;;;;;37.38;14.40;;;;;;;6.96;92.21;102411.41;4913785;29;20037;-71
2021/03/03 00:41:53;;;;;;;29.55;13.07;;;;;;;7.01;92.63;102406.81;4910241;29;20067;-70
2021/03/03 00:44:19;;;;;;;34.10;14.38;;;;;;;7.05;92.79;102419.19;4910583;29;20054;-71
2021/03/03 00:46:44;;;;;;;38.80;14.68;;;;;;;6.99;93.06;102424.66;4928977;29;20043;-70
2021/03/03 00:49:10;;;;;;;38.78;14.00;;;;;;;6.98;92.99;102422.03;4910271;29;20537;-71
2021/03/03 00:51:36;;;;;;;31.05;14.68;;;;;;;6.92;93.14;102417.69;4930940;29;20027;-71
2021/03/03 00:54:01;;;;;;;29.80;13.65;;;;;;;6.99;93.08;102416.66;4929712;29;20111;-71
2021/03/03 00:56:29;;;;;;;38.15;14.63;;;;;;;6.94;93.37;102410.53;4912993;29;20050;-71
2021/03/03 00:58:56;;;;;;;32.95;14.63;;;;;;;7.07;92.91;102417.38;4910917;29;20032;-70
2021/03/03 01:01:21;;;;;;;36.92;14.32;;;;;;;7.07;92.96;102414.69;4927084;29;20546;-71
2021/03/03 01:03:47;;;;;;;27.23;13.00;;;;;;;7.05;93.03;102407.63;4910048;29;20681;-70
2021/03/03 01:06:22;;;;;;;33.55;14.02;;;;;;;7.10;92.70;102413.72;4909413;29;20091;-71
2021/03/03 01:08:49;;;;;;;32.65;13.57;;;;;;;6.94;93.06;102410.53;4910011;29;20035;-71
2021/03/03 01:11:15;;;;;;;30.27;13.98;;;;;;;7.06;93.03;102412.94;4914120;29;20425;-71
2021/03/03 01:13:43;;;;;;;34.88;13.50;;;;;;;6.94;93.02;102405.22;4911459;29;20502;-71
2021/03/03 01:16:14;;;;;;;32.97;14.45;;;;;;;6.95;93.23;102406.97;4911150;29;20050;-71
2021/03/03 01:18:40;;;;;;;33.72;14.38;;;;;;;6.79;93.86;102413.53;4910168;29;20027;-71
2021/03/03 01:21:05;;;;;;;31.10;14.65;;;;;;;6.83;93.94;102404.56;4926895;29;20032;-71
2021/03/03 01:23:31;;;;;;;32.67;14.48;;;;;;;6.75;94.25;102410.06;4923686;29;20039;-70
2021/03/03 01:25:56;;;;;;;31.80;14.13;;;;;;;6.76;94.54;102408.28;4913566;29;20039;-71
2021/03/03 01:28:22;;;;;;;31.38;14.60;;;;;;;6.76;94.66;102409.16;4924398;29;20498;-71
2021/03/03 01:30:47;;;;;;;34.20;14.88;;;;;;;6.95;93.90;102401.63;4926751;29;20032;-70
2021/03/03 01:33:28;;;;;;;29.88;13.55;;;;;;;7.01;93.57;102406.81;4910788;29;21047;-70
2021/03/03 01:35:54;;;;;;;29.33;14.38;;;;;;;6.90;93.89;102404.41;4909272;29;20387;-71
2021/03/03 01:38:20;;;;;;;30.40;13.88;;;;;;;6.85;94.21;102402.75;4909846;29;20035;-71
2021/03/03 01:40:46;;;;;;;30.98;14.95;;;;;;;6.98;93.69;102400.66;4915413;29;20043;-71
2021/03/03 01:43:11;;;;;;;36.83;15.60;;;;;;;6.94;93.74;102394.53;4908992;29;20123;-71
2021/03/03 01:45:37;;;;;;;31.83;13.93;;;;;;;6.91;93.50;102389.28;4910421;29;20102;-71
2021/03/03 01:48:03;;;;;;;33.88;13.77;;;;;;;6.87;93.80;102392.91;4915652;29;20046;-70
2021/03/03 01:50:28;;;;;;;37.10;15.68;;;;;;;6.88;93.87;102394.66;4894595;29;20040;-71
2021/03/03 01:52:54;;;;;;;37.55;15.10;;;;;;;6.88;93.64;102390.22;4927138;29;21024;-71
2021/03/03 01:55:19;;;;;;;31.73;14.60;;;;;;;6.90;93.61;102384.84;4915126;29;20036;-71
2021/03/03 01:57:45;;;;;;;35.50;14.52;;;;;;;6.84;93.67;102383.19;4926468;29;20043;-71
2021/03/03 02:00:11;;;;;;;35.85;14.55;;;;;;;6.78;93.73;102391.34;4909756;29;20084;-71
2021/03/03 02:02:40;;;;;;;32.55;13.82;;;;;;;6.67;94.53;102392.44;4907033;29;20039;-69
2021/03/03 02:05:06;;;;;;;39.30;14.60;;;;;;;6.63;94.64;102388.09;4927229;29;20035;-71
2021/03/03 02:07:51;;;;;;;33.58;15.20;;;;;;;6.62;94.61;102381.00;4925103;29;20390;-70
2021/03/03 02:10:34;;;;;;;35.05;14.82;;;;;;;6.63;94.88;102374.75;4927044;29;20039;-71
2021/03/03 02:13:06;;;;;;;46.67;14.95;;;;;;;6.60;94.87;102382.84;4928502;29;20058;-70
2021/03/03 02:15:35;;;;;;;37.28;14.82;;;;;;;6.50;95.58;102379.47;4927949;29;20090;-70
2021/03/03 02:18:06;;;;;;;33.80;14.30;;;;;;;6.42;95.80;102378.75;4911984;29;20091;-71
2021/03/03 02:20:41;;;;;;;36.45;15.90;;;;;;;6.40;95.82;102373.47;4926028;29;20498;-71
2021/03/03 02:23:16;;;;;;;38.65;15.23;;;;;;;6.40;95.95;102372.59;4927033;29;20062;-71
2021/03/03 02:25:43;;;;;;;35.38;14.63;;;;;;;6.34;96.13;102370.06;4926506;29;20339;-71
2021/03/03 02:28:11;;;;;;;38.78;14.32;;;;;;;6.34;96.28;102370.94;4925149;29;20525;-71
2021/03/03 02:30:39;;;;;;;36.55;14.88;;;;;;;6.24;96.50;102357.78;4924943;29;20560;-71
2021/03/03 02:33:06;;;;;;;31.60;14.07;;;;;;;6.18;96.88;102360.59;4923885;29;20395;-71
2021/03/03 02:35:32;;;;;;;33.50;14.70;;;;;;;6.16;96.48;102362.41;4913390;29;20027;-71
2021/03/03 02:37:58;;;;;;;34.13;14.25;;;;;;;6.10;96.49;102355.44;4924977;29;20386;-70
2021/03/03 02:40:26;;;;;;;36.80;14.95;;;;;;;6.02;96.59;102357.34;4926918;29;20652;-69
2021/03/03 02:42:54;;;;;;;33.38;15.48;;;;;;;5.93;97.14;102352.19;4925800;29;20424;-71
2021/03/03 02:45:20;;;;;;;28.02;13.75;;;;;;;5.87;97.37;102354.94;4926394;29;20106;-70
2021/03/03 02:47:47;;;;;;;28.80;13.32;;;;;;;5.83;97.63;102353.25;4927052;28;20027;-70
2021/03/03 02:50:13;;;;;;;32.03;13.20;;;;;;;5.78;97.79;102347.13;4924226;29;20091;-71
2021/03/03 02:52:56;;;;;;;31.63;12.98;;;;;;;5.72;97.46;102344.56;4929979;29;20059;-70
2021/03/03 02:55:23;;;;;;;;;;;;;;;5.68;97.55;102349.06;4926801;29;20861;-69
2021/03/03 02:57:48;;;;;;;32.03;13.18;;;;;;;5.66;97.26;102351.78;4929541;29;19929;-71
2021/03/03 03:00:19;;;;;;;37.55;14.35;;;;;;;5.64;97.02;102350.03;4930119;29;20039;-68
2021/03/03 03:02:47;;;;;;;34.35;13.95;;;;;;;5.57;97.17;102341.28;4913073;29;20042;-70
2021/03/03 03:05:13;;;;;;;33.42;13.18;;;;;;;5.57;97.45;102341.28;4928627;29;20043;-71
2021/03/03 03:07:44;;;;;;;34.58;14.85;;;;;;;5.56;97.51;102336.84;4912072;29;20039;-71
2021/03/03 03:10:13;;;;;;;31.40;14.25;;;;;;;5.51;98.06;102332.50;4911461;29;20043;-69
2021/03/03 03:12:43;;;;;;;30.08;13.93;;;;;;;5.54;98.44;102330.69;4930585;29;20498;-70
2021/03/03 03:15:12;;;;;;;35.33;15.05;;;;;;;5.61;98.90;102335.00;4913396;29;20036;-71
2021/03/03 03:17:37;;;;;;;34.90;16.23;;;;;;;5.64;99.61;102339.38;4922882;29;20082;-71
2021/03/03 03:20:04;;;;;;;36.15;15.75;;;;;;;5.59;99.87;102333.25;4928967;29;20495;-71
2021/03/03 03:22:32;;;;;;;35.15;15.60;;;;;;;5.66;100.00;102332.25;4933462;29;20067;-70
2021/03/03 03:24:58;;;;;;;32.25;14.73;;;;;;;5.63;99.99;102333.16;4928817;29;20043;-70
2021/03/03 03:27:26;;;;;;;31.95;14.35;;;;;;;5.59;100.00;102336.81;4929181;29;20042;-71
2021/03/03 03:29:52;;;;;;;38.15;16.33;;;;;;;5.68;100.00;102328.63;4912126;29;20772;-71
2021/03/03 03:32:19;;;;;;;37.33;16.70;;;;;;;5.73;100.00;102338.34;4928770;29;20054;-70
2021/03/03 03:34:45;;;;;;;34.67;14.93;;;;;;;5.72;100.00;102331.25;4928946;29;20040;-71
2021/03/03 03:37:13;;;;;;;38.20;15.63;;;;;;;5.68;100.00;102331.28;4912269;29;20051;-71
2021/03/03 03:39:39;;;;;;;42.30;16.77;;;;;;;5.74;100.00;102327.63;4913534;29;20036;-69
2021/03/03 03:42:07;;;;;;;42.03;17.25;;;;;;;5.79;100.00;102333.78;4929011;29;20035;-71
2021/03/03 03:44:33;;;;;;;35.70;16.25;;;;;;;5.82;100.00;102335.50;4930518;29;20040;-71
2021/03/03 03:46:59;;;;;;;39.25;16.33;;;;;;;5.87;100.00;102333.59;4912109;29;20050;-70
2021/03/03 03:49:26;;;;;;;47.88;16.77;;;;;;;5.91;100.00;102327.38;4928527;29;20070;-71
2021/03/03 03:51:52;;;;;;;41.90;17.85;;;;;;;5.88;100.00;102333.63;4930439;29;20067;-69
2021/03/03 03:54:17;;;;;;;37.85;15.30;;;;;;;5.79;100.00;102333.78;4929098;29;20119;-70
2021/03/03 03:56:43;;;;;;;40.05;15.73;;;;;;;5.76;100.00;102332.94;4928803;29;20041;-71
2021/03/03 03:59:09;;;;;;;42.15;17.02;;;;;;;5.70;100.00;102326.81;4912541;29;20086;-70
2021/03/03 04:01:35;;;;;;;41.88;17.60;;;;;;;5.68;100.00;102327.75;4929664;29;20049;-70
2021/03/03 04:04:00;;;;;;;43.75;17.10;;;;;;;5.65;100.00;102325.16;4912886;29;20032;-70
2021/03/03 04:06:28;;;;;;;43.92;17.30;;;;;;;5.66;100.00;102332.25;4926964;29;20467;-71
2021/03/03 04:08:54;;;;;;;39.63;16.63;;;;;;;5.66;100.00;102326.91;4928942;29;20058;-70
2021/03/03 04:11:20;;;;;;;38.95;17.13;;;;;;;5.64;100.00;102337.59;4926985;29;20050;-71
2021/03/03 04:13:45;;;;;;;42.25;16.80;;;;;;;5.57;100.00;102337.72;4912164;29;20035;-71
2021/03/03 04:16:10;;;;;;;38.70;15.02;;;;;;;5.53;100.00;102342.25;4931878;29;20054;-70
2021/03/03 04:18:36;;;;;;;38.60;15.55;;;;;;;5.55;100.00;102343.09;4928372;29;20119;-71
2021/03/03 04:21:01;;;;;;;41.70;18.50;;;;;;;5.74;100.00;102340.09;4913053;29;20040;-71
2021/03/03 04:23:27;;;;;;;44.15;18.10;;;;;;;5.66;100.00;102333.13;4928749;29;20067;-70
2021/03/03 04:25:52;;;;;;;39.10;17.48;;;;;;;5.75;100.00;102321.41;4928886;29;20039;-70
2021/03/03 04:28:18;;;;;;;35.90;16.45;;;;;;;5.64;100.00;102334.94;4927781;29;20123;-70
2021/03/03 04:30:43;;;;;;;38.55;17.33;;;;;;;5.69;100.00;102321.53;4928833;29;20032;-70
2021/03/03 04:33:09;;;;;;;39.63;17.55;;;;;;;5.69;100.00;102333.06;4911569;29;20396;-71
2021/03/03 04:35:35;;;;;;;40.65;17.25;;;;;;;5.65;100.00;102331.38;4928013;29;20110;-71
2021/03/03 04:38:00;;;;;;;33.70;14.98;;;;;;;5.61;100.00;102335.00;4926813;29;20040;-70
2021/03/03 04:40:27;;;;;;;33.60;15.45;;;;;;;5.60;100.00;102337.69;4928227;29;20032;-70
2021/03/03 04:42:53;;;;;;;36.75;16.52;;;;;;;5.52;100.00;102343.16;4911440;29;20408;-71
2021/03/03 04:45:18;;;;;;;30.80;15.27;;;;;;;5.47;100.00;102342.34;4929000;29;20039;-70
2021/03/03 04:47:43;;;;;;;35.60;15.77;;;;;;;5.43;100.00;102334.44;4927557;29;20043;-69
2021/03/03 04:50:09;;;;;;;38.63;16.40;;;;;;;5.45;100.00;102338.81;4927909;29;20039;-69
2021/03/03 04:52:36;;;;;;;32.45;16.20;;;;;;;5.42;100.00;102336.22;4910852;29;20038;-70
2021/03/03 04:55:03;;;;;;;36.00;17.13;;;;;;;5.39;100.00;102333.59;4928929;29;20035;-71
2021/03/03 04:57:28;;;;;;;42.35;19.48;;;;;;;5.51;100.00;102333.38;4927642;29;20042;-69
2021/03/03 04:59:54;;;;;;;42.25;19.35;;;;;;;5.56;100.00;102339.50;4910270;29;20065;-70
2021/03/03 05:02:19;;;;;;;47.90;18.85;;;;;;;5.56;100.00;102333.31;4928856;29;20039;-71
2021/03/03 05:04:45;;;;;;;42.92;17.90;;;;;;;5.54;100.00;102327.16;4910613;29;20036;-70
2021/03/03 05:07:11;;;;;;;38.67;16.85;;;;;;;5.57;100.00;102330.63;4927129;29;20040;-71
2021/03/03 05:09:36;;;;;;;36.63;16.38;;;;;;;5.52;100.00;102327.16;4927137;29;20111;-70
2021/03/03 05:12:02;;;;;;;42.75;19.85;;;;;;;5.45;100.00;102319.31;4912366;29;20571;-71
2021/03/03 05:14:28;;;;;;;40.17;17.35;;;;;;;5.40;100.00;102330.03;4930882;29;20043;-71
2021/03/03 05:16:54;;;;;;;39.85;17.30;;;;;;;5.40;100.00;102334.47;4912114;29;20670;-71
2021/03/03 05:19:19;;;;;;;35.45;15.80;;;;;;;5.35;100.00;102325.72;4910946;29;20127;-71
2021/03/03 05:21:44;;;;;;;36.75;15.88;;;;;;;5.32;100.00;102321.28;4927125;29;20146;-69
2021/03/03 05:24:10;;;;;;;42.50;17.67;;;;;;;5.31;100.00;102324.84;4926705;29;20035;-71
2021/03/03 05:26:35;;;;;;;41.22;17.15;;;;;;;5.27;100.00;102328.50;4927858;29;20385;-70
2021/03/03 05:29:01;;;;;;;44.55;17.45;;;;;;;5.26;100.00;102324.06;4927230;29;20118;-70
2021/03/03 05:31:27;;;;;;;45.67;17.40;;;;;;;5.23;100.00;102322.34;4909800;29;20050;-71
2021/03/03 05:33:52;;;;;;;39.85;17.40;;;;;;;5.35;100.00;102321.25;4926241;29;20032;-71
2021/03/03 05:36:18;;;;;;;42.30;16.90;;;;;;;5.30;100.00;102317.81;4918734;29;20035;-71
2021/03/03 05:38:43;;;;;;;41.10;16.60;;;;;;;5.24;100.00;102300.16;4923739;29;20316;-71
2021/03/03 05:41:09;;;;;;;44.58;17.30;;;;;;;5.30;100.00;102309.81;4926914;29;20084;-71
2021/03/03 05:43:37;;;;;;;38.53;16.75;;;;;;;5.26;100.00;102314.28;4932368;29;20046;-70
2021/03/03 05:46:04;;;;;;;43.03;17.65;;;;;;;5.25;100.00;102314.31;4928462;29;20122;-70
2021/03/03 05:48:39;;;;;;;41.25;17.67;;;;;;;5.28;100.00;102315.16;4911671;29;20422;-71
2021/03/03 05:51:06;;;;;;;41.63;17.10;;;;;;;5.43;100.00;102307.81;4922893;29;20082;-70
2021/03/03 05:53:33;;;;;;;39.33;16.65;;;;;;;5.45;100.00;102312.19;4919620;29;20498;-70
2021/03/03 05:56:00;;;;;;;52.92;18.10;;;;;;;5.50;100.00;102315.66;4926927;29;20032;-69
2021/03/03 05:58:43;;;;;;;47.97;17.73;;;;;;;5.47;100.00;102310.41;4927089;29;20028;-69
2021/03/03 06:01:09;;;;;;;49.70;18.92;;;;;;;5.36;100.00;102308.84;4896664;29;20046;-69
2021/03/03 06:03:36;;;;;;;41.92;17.73;;;;;;;5.34;100.00;102307.97;4911885;29;20054;-70
2021/03/03 06:06:01;;;;;;;39.85;17.08;;;;;;;5.34;100.00;102303.53;4926563;29;20032;-70
2021/03/03 06:08:30;;;;;;;47.85;18.52;;;;;;;5.36;100.00;102296.41;4927511;29;20418;-70
2021/03/03 06:10:57;;;;;;;42.00;16.83;;;;;;;5.42;100.00;102292.75;4926020;29;20495;-70
2021/03/03 06:13:22;;;;;;;45.85;18.40;;;;;;;5.47;100.00;102298.84;4924720;29;20067;-69
2021/03/03 06:15:48;;;;;;;35.72;16.58;;;;;;;5.41;100.00;102297.19;4922039;29;20506;-70
2021/03/03 06:18:16;;;;;;;38.70;17.35;;;;;;;5.34;100.00;102308.84;4929554;29;20309;-70
2021/03/03 06:20:47;;;;;;;39.50;17.10;;;;;;;5.40;100.00;102314.06;4923226;29;20760;-70
2021/03/03 06:23:12;;;;;;;41.00;16.63;;;;;;;5.33;100.00;102312.41;4926507;29;20451;-70
2021/03/03 06:25:38;;;;;;;45.15;19.20;;;;;;;5.38;100.00;102313.19;4909258;29;20491;-70
2021/03/03 06:28:04;;;;;;;49.22;17.70;;;;;;;5.29;100.00;102305.38;4928250;29;20459;-70
2021/03/03 06:30:29;;;;;;;50.08;17.42;;;;;;;5.33;100.00;102307.09;4926044;29;20135;-70
2021/03/03 06:33:05;;;;;;;49.28;19.52;;;;;;;5.32;100.00;102312.44;4931985;29;20027;-70
2021/03/03 06:35:33;;;;;;;43.95;19.00;;;;;;;5.31;100.00;102318.69;4927184;29;20039;-70
2021/03/03 06:37:59;;;;;;;38.58;17.17;;;;;;;5.29;100.00;102316.03;4908176;29;20083;-69
2021/03/03 06:40:24;;;;;;;41.95;18.17;;;;;;;5.35;100.00;102326.59;4925908;29;20028;-69
2021/03/03 06:42:50;;;;;;;44.92;19.00;;;;;;;5.31;100.00;102318.69;4929664;29;20044;-70
2021/03/03 06:45:31;;;;;;;46.70;19.63;;;;;;;5.26;100.00;102322.28;4920877;29;20047;-70
2021/03/03 06:47:57;;;;;;;42.35;17.80;;;;;;;5.24;100.00;102324.13;4923179;29;20031;-69
2021/03/03 06:50:35;;;;;;;46.72;20.45;;;;;;;5.31;100.00;102319.53;4919075;29;20046;-69
2021/03/03 06:53:00;;;;;;;46.53;19.85;;;;;;;5.31;100.00;102327.53;4946161;29;20068;-70
2021/03/03 06:55:53;;;;;;;51.33;18.85;;;;;;;5.31;100.00;102326.66;4934739;29;20279;-69
2021/03/03 06:58:23;;;;;;;51.92;19.77;;;;;;;5.32;100.00;102321.28;4912147;29;20055;-69
2021/03/03 07:00:48;;;;;;;39.63;18.15;;;;;;;5.29;100.00;102326.69;4924789;29;20700;-69
2021/03/03 07:03:41;;;;;;;40.08;18.80;;;;;;;5.33;100.00;102328.38;4928914;29;20126;-70
2021/03/03 07:06:07;;;;;;;42.55;17.95;;;;;;;5.35;100.00;102326.59;4927646;29;20040;-70
2021/03/03 07:08:32;;;;;;;42.83;18.23;;;;;;;5.37;100.00;102335.41;4925100;29;20294;-70
2021/03/03 07:10:58;;;;;;;47.97;19.23;;;;;;;5.38;100.00;102329.19;4926289;29;20035;-70
2021/03/03 07:13:37;;;;;;;47.85;19.55;;;;;;;5.45;100.00;102336.16;4919996;29;20611;-70
2021/03/03 07:16:04;;;;;;;43.05;19.58;;;;;;;5.53;100.00;102342.25;4927600;29;20039;-70
2021/03/03 07:18:39;;;;;;;45.42;20.05;;;;;;;5.51;100.00;102341.38;4913800;29;20043;-70
2021/03/03 07:21:06;;;;;;;40.55;19.45;;;;;;;5.52;100.00;102336.94;4909508;29;21514;-70
2021/03/03 07:23:48;;;;;;;45.65;18.75;;;;;;;5.56;100.00;102342.16;4907588;29;20095;-68
2021/03/03 07:26:15;;;;;;;51.63;19.30;;;;;;;5.56;100.00;102343.97;4923560;29;20807;-70
2021/03/03 07:28:41;;;;;;;44.15;17.80;;;;;;;5.59;100.00;102342.13;4925897;29;20043;-69
2021/03/03 07:31:08;;;;;;;48.65;19.63;;;;;;;5.74;100.00;102345.44;4926315;29;20028;-70
2021/03/03 07:33:33;;;;;;;50.50;19.35;;;;;;;5.81;100.00;102349.72;4921343;29;20032;-70
2021/03/03 07:36:01;;;;;;;40.97;19.58;;;;;;;5.84;100.00;102347.00;4926618;29;20067;-70
2021/03/03 07:38:33;;;;;;;48.80;20.00;;;;;;;6.00;100.00;102349.38;4929514;28;20040;-70
2021/03/03 07:41:07;;;;;;;51.28;21.67;;;;;;;6.27;100.00;102353.28;4918736;29;20036;-70
2021/03/03 07:43:34;;;;;;;53.38;22.00;;;;;;;6.45;100.00;102344.91;4927800;29;20479;-70
2021/03/03 07:46:03;;;;;;;49.10;21.77;;;;;;;6.67;100.00;102347.09;4928956;29;20046;-70
2021/03/03 07:48:31;;;;;;;51.63;21.05;;;;;;;6.88;98.48;102347.50;4911964;29;20047;-70
2021/03/03 07:50:56;;;;;;;48.97;21.08;;;;;;;7.02;97.34;102348.97;4929223;29;20118;-70
2021/03/03 07:53:22;;;;;;;51.53;20.17;;;;;;;6.97;97.02;102341.09;4929275;29;20040;-70
2021/03/03 07:55:48;;;;;;;46.03;20.30;;;;;;;7.03;96.98;102343.59;4928489;29;20051;-70
2021/03/03 07:58:14;;;;;;;49.17;20.30;;;;;;;7.17;95.37;102344.13;4928611;29;20036;-70
2021/03/03 08:00:42;;;;;;;50.85;21.45;;;;;;;7.16;95.32;102337.03;4912481;29;20085;-69
2021/03/03 08:03:08;;;;;;;48.53;20.70;;;;;;;7.22;95.13;102342.22;4918226;29;20499;-69
2021/03/03 08:05:38;;;;;;;48.47;19.73;;;;;;;7.31;94.44;102333.09;4929099;29;20098;-69
2021/03/03 08:08:10;;;;;;;44.25;18.27;;;;;;;7.42;94.24;102335.50;4927873;29;20550;-68
2021/03/03 08:10:40;;;;;;;49.55;19.38;;;;;;;7.62;94.05;102352.78;4929978;29;20487;-70
2021/03/03 08:13:09;;;;;;;46.70;19.02;;;;;;;8.00;90.36;102351.75;4928935;29;20298;-69
2021/03/03 08:15:38;;;;;;;44.72;17.70;;;;;;;8.31;88.22;102348.25;4915471;29;20071;-70
2021/03/03 08:18:21;;;;;;;46.58;17.40;;;;;;;8.66;85.92;102357.91;4927551;29;20447;-70
2021/03/03 08:20:50;;;;;;;45.55;17.92;;;;;;;8.82;84.77;102354.72;4930104;29;20035;-70
2021/03/03 08:23:33;;;;;;;46.50;17.83;;;;;;;8.96;84.94;102359.63;4927587;29;20044;-70
2021/03/03 08:26:02;;;;;;;41.78;17.52;;;;;;;9.15;84.27;102354.56;4921869;29;20046;-70
2021/03/03 08:28:35;;;;;;;41.17;17.10;;;;;;;9.39;84.15;102359.13;4926839;29;20031;-70
2021/03/03 08:31:07;;;;;;;;;;;;;;;9.71;82.62;102356.22;4899957;29;20031;-70
2021/03/03 08:33:43;;;;;;;45.05;17.60;;;;;;;9.97;78.79;102351.75;4930605;29;20365;-71
2021/03/03 08:36:26;;;;;;;46.08;16.73;;;;;;;10.01;78.21;102350.69;4931814;29;20478;-71
2021/03/03 08:38:54;;;;;;;46.38;19.38;;;;;;;10.20;78.50;102354.50;4929377;29;20036;-70
2021/03/03 08:41:23;;;;;;;41.70;17.70;;;;;;;10.43;77.50;102349.16;4914221;29;20044;-70
2021/03/03 08:43:50;;;;;;;33.00;16.83;;;;;;;10.53;76.57;102347.88;4918541;29;20039;-71
2021/03/03 08:46:21;;;;;;;36.97;17.33;;;;;;;10.52;76.71;102353.31;4929337;29;20483;-69
2021/03/03 08:48:53;;;;;;;35.30;16.27;;;;;;;10.59;77.10;102356.63;4916741;29;20036;-71
2021/03/03 08:51:28;;;;;;;47.75;16.90;;;;;;;10.58;76.29;102352.19;4929894;29;20082;-71
2021/03/03 08:54:17;;;;;;;42.65;16.25;;;;;;;10.93;76.09;102357.94;4931050;29;20031;-71
2021/03/03 08:56:45;;;;;;;37.28;16.00;;;;;;;11.21;73.68;102349.66;4909610;29;20376;-71
2021/03/03 08:59:34;;;;;;;36.05;14.60;;;;;;;11.34;73.05;102348.22;4915372;29;20063;-70
2021/03/03 09:02:03;;;;;;;42.25;16.65;;;;;;;11.65;71.01;102349.59;4924066;29;20592;-71
2021/03/03 09:04:28;;;;;;;38.70;15.00;;;;;;;11.87;71.25;102354.94;4929795;29;20044;-70
2021/03/03 09:07:05;;;;;;;37.20;15.45;;;;;;;12.05;68.90;102363.09;4929193;29;20063;-71
2021/03/03 09:09:39;;;;;;;40.25;17.08;;;;;;;12.29;67.88;102346.78;4894783;29;20414;-73
2021/03/03 09:12:10;;;;;;;49.40;18.10;;;;;;;12.39;68.85;102340.91;4926635;29;20477;-70
2021/03/03 09:14:37;;;;;;;46.03;16.00;;;;;;;12.57;67.76;102345.44;4931098;29;20028;-71
2021/03/03 09:17:15;;;;;;;37.55;15.27;;;;;;;12.63;66.79;102341.59;4920180;29;20498;-71
2021/03/03 09:19:41;;;;;;;32.85;14.85;;;;;;;12.79;67.39;102345.28;4932684;29;20072;-71
2021/03/03 09:22:15;;;;;;;44.63;17.40;;;;;;;12.80;67.14;102348.88;4928006;29;20127;-69
2021/03/03 09:24:40;;;;;;;38.47;17.42;;;;;;;12.90;65.24;102342.94;4928598;29;20035;-71
2021/03/03 09:27:09;;;;;;;38.83;16.40;;;;;;;12.82;67.54;102339.78;4912845;29;20029;-69
2021/03/03 09:29:36;;;;;;;37.70;14.60;;;;;;;12.90;67.74;102337.56;4927403;29;20043;-71
2021/03/03 09:32:08;;;;;;;36.10;16.77;;;;;;;12.96;67.65;102331.03;4923294;29;20102;-71
2021/03/03 09:34:35;;;;;;;37.80;17.17;;;;;;;12.90;65.74;102340.25;4925872;29;20131;-71
2021/03/03 09:37:03;;;;;;;43.17;16.90;;;;;;;13.08;65.14;102343.03;4928133;29;20068;-71
2021/03/03 09:39:29;;;;;;;47.35;17.15;;;;;;;13.07;64.15;102339.47;4910826;29;20036;-71
2021/03/03 09:42:01;;;;;;;39.42;16.45;;;;;;;12.94;67.91;102332.91;4916795;29;20038;-71
2021/03/03 09:44:41;;;;;;;42.55;17.10;;;;;;;12.96;65.27;102344.50;4926468;29;20039;-71
2021/03/03 09:47:06;;;;;;;38.28;16.58;;;;;;;13.06;63.60;102336.81;4931890;29;20041;-71
2021/03/03 09:49:33;;;;;;;38.97;17.45;;;;;;;13.20;65.26;102337.06;4927643;29;20059;-69
2021/03/03 09:51:59;;;;;;;39.72;16.83;;;;;;;13.19;65.22;102333.50;4933453;29;20027;-71
2021/03/03 09:54:26;;;;;;;40.85;17.80;;;;;;;13.35;66.48;102339.84;4929270;29;20115;-71
2021/03/03 09:56:52;;;;;;;43.22;19.70;;;;;;;13.36;66.86;102330.81;4915998;29;20035;-71
2021/03/03 09:59:18;;;;;;;40.15;19.50;;;;;;;13.31;66.17;102329.31;4927002;29;20486;-71
2021/03/03 10:01:44;;;;;;;46.53;20.02;;;;;;;13.41;67.19;102330.59;4926743;29;20043;-71
2021/03/03 10:04:10;;;;;;;46.25;19.85;;;;;;;13.43;65.36;102327.81;4910672;29;20763;-71
2021/03/03 10:06:35;;;;;;;56.00;24.13;;;;;;;13.39;65.84;102332.50;4933192;29;20082;-71
2021/03/03 10:09:02;;;;;;;42.65;20.35;;;;;;;13.51;65.27;102331.88;4928112;29;20090;-71
2021/03/03 10:11:27;;;;;;;44.78;20.52;;;;;;;13.74;65.97;102326.16;4930424;29;20047;-71
2021/03/03 10:14:06;;;;;;;55.22;21.52;;;;;;;13.91;63.11;102330.69;4927518;29;20043;-70
2021/03/03 10:16:32;;;;;;;46.13;20.85;;;;;;;13.99;65.20;102327.56;4913766;29;20475;-72
2021/03/03 10:19:02;;;;;;;59.80;23.15;;;;;;;14.16;60.78;102338.34;4892568;29;20561;-71
2021/03/03 10:21:28;;;;;;;62.80;24.63;;;;;;;14.14;60.84;102337.53;4910171;29;20039;-71
2021/03/03 10:23:53;;;;;;;60.45;22.65;;;;;;;13.97;62.33;102332.19;4925970;29;20399;-72
2021/03/03 10:26:23;;;;;;;58.28;23.45;;;;;;;14.10;63.02;102338.69;4928944;29;20447;-71
2021/03/03 10:28:52;;;;;;;64.13;26.52;;;;;;;14.12;63.32;102328.66;4909555;29;20035;-71
2021/03/03 10:31:22;;;;;;;57.20;25.67;;;;;;;14.15;64.37;102328.50;4917866;29;20419;-71
2021/03/03 10:33:48;;;;;;;59.38;27.80;;;;;;;14.15;63.92;102325.78;4925773;29;20038;-72
2021/03/03 10:36:13;;;;;;;60.25;27.80;;;;;;;14.30;64.58;102318.69;4927284;29;20043;-71
2021/03/03 10:38:45;;;;;;;60.17;27.70;;;;;;;14.26;63.48;102317.97;4907580;29;20576;-72
2021/03/03 10:41:21;;;;;;;72.78;28.15;;;;;;;14.18;65.41;102320.25;4926492;29;20032;-71
2021/03/03 10:43:48;;;;;;;61.03;27.30;;;;;;;14.21;64.29;102328.16;4922364;29;20113;-71
2021/03/03 10:46:16;;;;;;;60.88;27.00;;;;;;;14.48;64.56;102321.31;4928040;29;20046;-71
2021/03/03 10:48:43;;;;;;;66.53;28.48;;;;;;;14.44;64.45;102321.56;4911329;29;20070;-71
2021/03/03 10:51:09;;;;;;;60.13;27.75;;;;;;;14.47;63.90;102327.66;4926421;29;20042;-71
2021/03/03 10:53:57;;;;;;;67.07;27.70;;;;;;;14.46;64.50;102319.63;4929054;29;20031;-71
2021/03/03 10:56:27;;;;;;;61.30;27.05;;;;;;;14.51;64.04;102313.00;4925310;29;20039;-71
2021/03/03 10:58:55;;;;;;;61.53;29.38;;;;;;;14.49;64.18;102314.94;4893523;29;20099;-72
2021/03/03 11:01:21;;;;;;;61.22;27.33;;;;;;;14.62;64.15;102306.16;4915679;29;20130;-71
2021/03/03 11:03:55;;;;;;;62.67;26.70;;;;;;;14.48;64.21;102306.91;4917231;29;20028;-72
2021/03/03 11:06:22;;;;;;;64.05;26.77;;;;;;;14.63;63.42;102314.16;4926319;29;20044;-71
2021/03/03 11:08:48;;;;;;;59.50;26.60;;;;;;;14.83;63.16;102307.63;4925225;29;20143;-71
2021/03/03 11:11:14;;;;;;;55.42;26.55;;;;;;;14.81;63.37;102306.88;4925635;29;20096;-71
2021/03/03 11:13:39;;;;;;;67.50;26.75;;;;;;;14.83;63.80;102303.09;4927896;29;20027;-70
2021/03/03 11:16:05;;;;;;;53.17;26.80;;;;;;;14.85;63.04;102298.47;4929949;29;20168;-72